sensor_id;sensor_type;location;lat;lon;timestamp;pressure;altitude;pressure_sealevel;temperature;humidity
55289;BME280;41154;45.394;5.734;2022-07-05T00:00:45;97297.59;;;18.54;100.00
55289;BME280;41154;45.394;5.734;2022-07-05T00:03:11;97303.19;;;18.63;100.00
55289;BME280;41154;45.394;5.734;2022-07-05T00:05:37;97315.34;;;18.46;100.00
55289;BME280;41154;45.394;5.734;2022-07-05T00:08:04;97312.06;;;18.30;100.00
55289;BME280;41154;45.394;5.734;2022-07-05T00:10:34;97305.16;;;18.38;100.00
55289;BME280;41154;45.394;5.734;2022-07-05T00:13:00;97294.47;;;18.47;100.00
55289;BME280;41154;45.394;5.734;2022-07-05T00:15:26;97303.53;;;18.18;100.00
55289;BME280;41154;45.394;5.734;2022-07-05T00:17:52;97313.59;;;18.18;100.00
55289;BME280;41154;45.394;5.734;2022-07-05T00:20:18;97308.66;;;18.20;100.00
55289;BME280;41154;45.394;5.734;2022-07-05T00:22:44;97311.16;;;18.16;100.00
55289;BME280;41154;45.394;5.734;2022-07-05T00:25:10;97313.84;;;17.97;100.00
55289;BME280;41154;45.394;5.734;2022-07-05T00:27:36;97316.59;;;17.92;100.00
55289;BME280;41154;45.394;5.734;2022-07-05T00:30:03;97315.53;;;17.93;100.00
55289;BME280;41154;45.394;5.734;2022-07-05T00:32:29;97324.72;;;17.97;100.00
55289;BME280;41154;45.394;5.734;2022-07-05T00:34:55;97330.13;;;17.97;100.00
55289;BME280;41154;45.394;5.734;2022-07-05T00:37:20;97320.66;;;17.94;100.00
55289;BME280;41154;45.394;5.734;2022-07-05T00:39:46;97328.50;;;17.72;100.00
55289;BME280;41154;45.394;5.734;2022-07-05T00:42:12;97326.41;;;17.88;100.00
55289;BME280;41154;45.394;5.734;2022-07-05T00:44:39;97327.34;;;18.02;100.00
55289;BME280;41154;45.394;5.734;2022-07-05T00:47:09;97321.63;;;17.79;100.00
55289;BME280;41154;45.394;5.734;2022-07-05T00:49:36;97324.44;;;17.69;100.00
55289;BME280;41154;45.394;5.734;2022-07-05T00:52:03;97326.53;;;17.53;100.00
55289;BME280;41154;45.394;5.734;2022-07-05T00:54:33;97320.84;;;17.50;100.00
55289;BME280;41154;45.394;5.734;2022-07-05T00:56:59;97306.97;;;17.56;100.00
55289;BME280;41154;45.394;5.734;2022-07-05T00:59:30;97312.53;;;17.65;100.00
55289;BME280;41154;45.394;5.734;2022-07-05T01:01:56;97310.97;;;17.59;100.00
55289;BME280;41154;45.394;5.734;2022-07-05T01:04:22;97302.03;;;17.58;100.00
55289;BME280;41154;45.394;5.734;2022-07-05T01:06:52;97311.19;;;17.38;100.00
55289;BME280;41154;45.394;5.734;2022-07-05T01:09:19;97307.78;;;17.28;100.00
55289;BME280;41154;45.394;5.734;2022-07-05T01:11:47;97300.00;;;17.21;100.00
55289;BME280;41154;45.394;5.734;2022-07-05T01:14:16;97308.69;;;17.18;100.00
55289;BME280;41154;45.394;5.734;2022-07-05T01:16:43;97311.88;;;17.25;100.00
55289;BME280;41154;45.394;5.734;2022-07-05T01:19:10;97309.78;;;17.17;100.00
55289;BME280;41154;45.394;5.734;2022-07-05T01:21:39;97311.47;;;17.07;100.00
55289;BME280;41154;45.394;5.734;2022-07-05T01:24:06;97314.75;;;17.04;100.00
55289;BME280;41154;45.394;5.734;2022-07-05T01:26:32;97314.31;;;17.27;100.00
55289;BME280;41154;45.394;5.734;2022-07-05T01:28:59;97309.78;;;17.46;100.00
55289;BME280;41154;45.394;5.734;2022-07-05T01:31:24;97310.34;;;17.43;100.00
55289;BME280;41154;45.394;5.734;2022-07-05T01:33:50;97308.59;;;17.28;100.00
55289;BME280;41154;45.394;5.734;2022-07-05T01:36:17;97313.63;;;17.40;100.00
55289;BME280;41154;45.394;5.734;2022-07-05T01:38:43;97315.91;;;17.28;100.00
55289;BME280;41154;45.394;5.734;2022-07-05T01:41:09;97315.16;;;17.22;100.00
55289;BME280;41154;45.394;5.734;2022-07-05T01:43:34;97316.47;;;17.24;100.00
55289;BME280;41154;45.394;5.734;2022-07-05T01:46:02;97327.41;;;17.43;100.00
55289;BME280;41154;45.394;5.734;2022-07-05T01:48:32;97321.47;;;17.41;100.00
55289;BME280;41154;45.394;5.734;2022-07-05T01:51:05;97325.66;;;17.29;100.00
55289;BME280;41154;45.394;5.734;2022-07-05T01:53:32;97325.16;;;17.27;100.00
55289;BME280;41154;45.394;5.734;2022-07-05T01:56:00;97325.53;;;17.15;100.00
55289;BME280;41154;45.394;5.734;2022-07-05T01:58:27;97324.84;;;16.99;100.00
55289;BME280;41154;45.394;5.734;2022-07-05T02:00:54;97329.72;;;16.97;100.00
55289;BME280;41154;45.394;5.734;2022-07-05T02:03:24;97334.00;;;17.03;100.00
55289;BME280;41154;45.394;5.734;2022-07-05T02:05:50;97334.56;;;17.00;100.00
55289;BME280;41154;45.394;5.734;2022-07-05T02:08:20;97334.28;;;17.01;100.00
55289;BME280;41154;45.394;5.734;2022-07-05T02:10:46;97336.09;;;16.77;100.00
55289;BME280;41154;45.394;5.734;2022-07-05T02:13:12;97335.03;;;16.73;100.00
55289;BME280;41154;45.394;5.734;2022-07-05T02:15:40;97330.84;;;16.96;100.00
55289;BME280;41154;45.394;5.734;2022-07-05T02:18:08;97332.16;;;16.98;100.00
55289;BME280;41154;45.394;5.734;2022-07-05T02:20:38;97340.69;;;16.81;100.00
55289;BME280;41154;45.394;5.734;2022-07-05T02:23:04;97325.88;;;16.63;100.00
55289;BME280;41154;45.394;5.734;2022-07-05T02:25:30;97338.59;;;16.68;100.00
55289;BME280;41154;45.394;5.734;2022-07-05T02:27:59;97331.59;;;16.62;100.00
55289;BME280;41154;45.394;5.734;2022-07-05T02:30:25;97330.50;;;16.63;100.00
55289;BME280;41154;45.394;5.734;2022-07-05T02:32:51;97336.91;;;16.77;100.00
55289;BME280;41154;45.394;5.734;2022-07-05T02:35:17;97333.59;;;16.85;100.00
55289;BME280;41154;45.394;5.734;2022-07-05T02:37:43;97332.59;;;16.71;100.00
55289;BME280;41154;45.394;5.734;2022-07-05T02:40:11;97332.09;;;16.64;100.00
55289;BME280;41154;45.394;5.734;2022-07-05T02:42:41;97334.53;;;16.70;100.00
55289;BME280;41154;45.394;5.734;2022-07-05T02:45:10;97333.78;;;16.60;100.00
55289;BME280;41154;45.394;5.734;2022-07-05T02:47:37;97339.16;;;16.65;100.00
55289;BME280;41154;45.394;5.734;2022-07-05T02:50:05;97335.59;;;16.69;100.00
55289;BME280;41154;45.394;5.734;2022-07-05T02:52:32;97341.50;;;16.77;100.00
55289;BME280;41154;45.394;5.734;2022-07-05T02:55:02;97336.22;;;17.01;100.00
55289;BME280;41154;45.394;5.734;2022-07-05T02:57:28;97336.53;;;16.94;100.00
55289;BME280;41154;45.394;5.734;2022-07-05T02:59:54;97329.22;;;16.95;100.00
55289;BME280;41154;45.394;5.734;2022-07-05T03:02:23;97329.56;;;16.83;100.00
55289;BME280;41154;45.394;5.734;2022-07-05T03:04:50;97334.09;;;16.93;100.00
55289;BME280;41154;45.394;5.734;2022-07-05T03:07:16;97344.25;;;17.11;100.00
55289;BME280;41154;45.394;5.734;2022-07-05T03:09:43;97340.38;;;17.22;100.00
55289;BME280;41154;45.394;5.734;2022-07-05T03:12:10;97341.00;;;17.14;100.00
55289;BME280;41154;45.394;5.734;2022-07-05T03:14:37;97340.44;;;16.73;100.00
55289;BME280;41154;45.394;5.734;2022-07-05T03:17:03;97338.06;;;16.61;100.00
55289;BME280;41154;45.394;5.734;2022-07-05T03:19:29;97343.81;;;16.54;100.00
55289;BME280;41154;45.394;5.734;2022-07-05T03:21:56;97336.97;;;16.67;100.00
55289;BME280;41154;45.394;5.734;2022-07-05T03:24:22;97336.50;;;16.54;100.00
55289;BME280;41154;45.394;5.734;2022-07-05T03:26:47;97349.00;;;16.45;100.00
55289;BME280;41154;45.394;5.734;2022-07-05T03:29:13;97343.53;;;16.56;100.00
55289;BME280;41154;45.394;5.734;2022-07-05T03:31:41;97352.72;;;16.60;100.00
55289;BME280;41154;45.394;5.734;2022-07-05T03:34:07;97342.75;;;16.55;100.00
55289;BME280;41154;45.394;5.734;2022-07-05T03:36:33;97357.31;;;16.59;100.00
55289;BME280;41154;45.394;5.734;2022-07-05T03:39:01;97357.59;;;16.58;100.00
55289;BME280;41154;45.394;5.734;2022-07-05T03:41:28;97354.88;;;16.58;100.00
55289;BME280;41154;45.394;5.734;2022-07-05T03:43:55;97364.88;;;16.62;100.00
55289;BME280;41154;45.394;5.734;2022-07-05T03:46:21;97361.09;;;16.63;100.00
55289;BME280;41154;45.394;5.734;2022-07-05T03:48:47;97366.78;;;16.62;100.00
55289;BME280;41154;45.394;5.734;2022-07-05T03:51:16;97369.75;;;16.65;100.00
55289;BME280;41154;45.394;5.734;2022-07-05T03:53:43;97368.97;;;16.60;100.00
55289;BME280;41154;45.394;5.734;2022-07-05T03:56:09;97370.94;;;16.49;100.00
55289;BME280;41154;45.394;5.734;2022-07-05T03:58:35;97364.53;;;16.29;100.00
55289;BME280;41154;45.394;5.734;2022-07-05T04:01:01;97377.28;;;16.24;100.00
55289;BME280;41154;45.394;5.734;2022-07-05T04:03:28;97386.97;;;16.35;100.00
55289;BME280;41154;45.394;5.734;2022-07-05T04:05:55;97390.22;;;16.32;100.00
55289;BME280;41154;45.394;5.734;2022-07-05T04:08:22;97391.56;;;16.34;100.00
55289;BME280;41154;45.394;5.734;2022-07-05T04:10:48;97388.66;;;16.21;100.00
55289;BME280;41154;45.394;5.734;2022-07-05T04:13:17;97397.31;;;16.23;100.00
55289;BME280;41154;45.394;5.734;2022-07-05T04:15:43;97391.88;;;16.28;100.00
55289;BME280;41154;45.394;5.734;2022-07-05T04:18:10;97395.69;;;16.22;100.00
55289;BME280;41154;45.394;5.734;2022-07-05T04:20:38;97392.41;;;16.25;100.00
55289;BME280;41154;45.394;5.734;2022-07-05T04:23:06;97394.53;;;16.33;100.00
55289;BME280;41154;45.394;5.734;2022-07-05T04:25:32;97389.16;;;16.28;100.00
55289;BME280;41154;45.394;5.734;2022-07-05T04:28:08;97394.84;;;16.31;100.00
55289;BME280;41154;45.394;5.734;2022-07-05T04:30:36;97398.28;;;16.47;100.00
55289;BME280;41154;45.394;5.734;2022-07-05T04:33:03;97400.91;;;16.63;100.00
55289;BME280;41154;45.394;5.734;2022-07-05T04:35:29;97396.63;;;16.57;100.00
55289;BME280;41154;45.394;5.734;2022-07-05T04:37:55;97399.97;;;16.38;100.00
55289;BME280;41154;45.394;5.734;2022-07-05T04:40:22;97400.53;;;16.30;100.00
55289;BME280;41154;45.394;5.734;2022-07-05T04:42:49;97405.09;;;16.34;100.00
55289;BME280;41154;45.394;5.734;2022-07-05T04:45:16;97413.56;;;16.17;100.00
55289;BME280;41154;45.394;5.734;2022-07-05T04:47:43;97419.50;;;16.20;100.00
55289;BME280;41154;45.394;5.734;2022-07-05T04:50:09;97419.44;;;16.40;100.00
55289;BME280;41154;45.394;5.734;2022-07-05T04:52:35;97411.56;;;16.44;100.00
55289;BME280;41154;45.394;5.734;2022-07-05T04:55:01;97420.78;;;16.38;100.00
55289;BME280;41154;45.394;5.734;2022-07-05T04:57:27;97414.53;;;16.47;100.00
55289;BME280;41154;45.394;5.734;2022-07-05T04:59:53;97407.19;;;16.53;100.00
55289;BME280;41154;45.394;5.734;2022-07-05T05:02:19;97404.03;;;16.85;100.00
55289;BME280;41154;45.394;5.734;2022-07-05T05:04:44;97400.22;;;16.92;100.00
55289;BME280;41154;45.394;5.734;2022-07-05T05:07:10;97402.44;;;16.84;100.00
55289;BME280;41154;45.394;5.734;2022-07-05T05:09:36;97413.50;;;16.93;100.00
55289;BME280;41154;45.394;5.734;2022-07-05T05:12:02;97410.91;;;17.17;100.00
55289;BME280;41154;45.394;5.734;2022-07-05T05:14:28;97408.13;;;17.22;100.00
55289;BME280;41154;45.394;5.734;2022-07-05T05:16:53;97411.63;;;17.28;100.00
55289;BME280;41154;45.394;5.734;2022-07-05T05:19:19;97411.47;;;17.49;100.00
55289;BME280;41154;45.394;5.734;2022-07-05T05:21:45;97412.59;;;17.72;100.00
55289;BME280;41154;45.394;5.734;2022-07-05T05:24:11;97416.75;;;17.93;100.00
55289;BME280;41154;45.394;5.734;2022-07-05T05:26:37;97423.66;;;18.34;100.00
55289;BME280;41154;45.394;5.734;2022-07-05T05:29:03;97423.59;;;19.53;100.00
55289;BME280;41154;45.394;5.734;2022-07-05T05:31:29;97432.56;;;21.21;100.00
55289;BME280;41154;45.394;5.734;2022-07-05T05:33:54;97433.25;;;22.25;100.00
55289;BME280;41154;45.394;5.734;2022-07-05T05:36:20;97428.63;;;23.19;100.00
55289;BME280;41154;45.394;5.734;2022-07-05T05:38:46;97433.94;;;24.62;100.00
55289;BME280;41154;45.394;5.734;2022-07-05T05:41:12;97433.31;;;25.07;95.30
55289;BME280;41154;45.394;5.734;2022-07-05T05:43:38;97434.25;;;25.11;81.40
55289;BME280;41154;45.394;5.734;2022-07-05T05:46:04;97430.91;;;24.46;82.64
55289;BME280;41154;45.394;5.734;2022-07-05T05:48:30;97431.97;;;24.71;82.16
55289;BME280;41154;45.394;5.734;2022-07-05T05:50:55;97429.16;;;25.22;78.80
55289;BME280;41154;45.394;5.734;2022-07-05T05:53:22;97421.41;;;25.03;80.76
55289;BME280;41154;45.394;5.734;2022-07-05T05:55:47;97430.66;;;26.08;74.77
55289;BME280;41154;45.394;5.734;2022-07-05T05:58:18;97424.75;;;25.97;74.76
55289;BME280;41154;45.394;5.734;2022-07-05T06:00:46;97429.97;;;26.11;74.04
55289;BME280;41154;45.394;5.734;2022-07-05T06:03:14;97419.78;;;25.78;74.52
55289;BME280;41154;45.394;5.734;2022-07-05T06:05:40;97430.97;;;25.39;76.24
55289;BME280;41154;45.394;5.734;2022-07-05T06:08:06;97434.22;;;26.45;72.60
55289;BME280;41154;45.394;5.734;2022-07-05T06:10:33;97431.59;;;26.73;70.34
55289;BME280;41154;45.394;5.734;2022-07-05T06:13:04;97422.97;;;26.87;70.53
55289;BME280;41154;45.394;5.734;2022-07-05T06:15:31;97430.88;;;27.42;68.37
55289;BME280;41154;45.394;5.734;2022-07-05T06:17:56;97434.16;;;27.19;68.51
55289;BME280;41154;45.394;5.734;2022-07-05T06:20:27;97427.03;;;27.59;65.67
55289;BME280;41154;45.394;5.734;2022-07-05T06:22:54;97424.50;;;28.78;62.15
55289;BME280;41154;45.394;5.734;2022-07-05T06:25:21;97425.13;;;27.47;65.40
55289;BME280;41154;45.394;5.734;2022-07-05T06:27:49;97430.00;;;27.38;65.88
55289;BME280;41154;45.394;5.734;2022-07-05T06:30:16;97427.09;;;27.91;63.60
55289;BME280;41154;45.394;5.734;2022-07-05T06:32:43;97430.25;;;28.21;61.63
55289;BME280;41154;45.394;5.734;2022-07-05T06:35:10;97420.72;;;28.66;61.84
55289;BME280;41154;45.394;5.734;2022-07-05T06:37:55;97427.09;;;29.22;59.02
55289;BME280;41154;45.394;5.734;2022-07-05T06:40:25;97429.38;;;29.00;59.39
55289;BME280;41154;45.394;5.734;2022-07-05T06:42:52;97427.56;;;28.25;60.88
55289;BME280;41154;45.394;5.734;2022-07-05T06:45:28;97431.97;;;29.29;58.50
55289;BME280;41154;45.394;5.734;2022-07-05T06:47:58;97430.28;;;27.93;62.51
55289;BME280;41154;45.394;5.734;2022-07-05T06:50:25;97422.38;;;31.04;54.36
55289;BME280;41154;45.394;5.734;2022-07-05T06:52:52;97432.13;;;30.44;55.54
55289;BME280;41154;45.394;5.734;2022-07-05T06:55:18;97419.78;;;29.72;54.57
55289;BME280;41154;45.394;5.734;2022-07-05T06:57:43;97426.53;;;29.16;57.56
55289;BME280;41154;45.394;5.734;2022-07-05T07:00:11;97422.63;;;30.19;54.10
55289;BME280;41154;45.394;5.734;2022-07-05T07:02:37;97426.41;;;32.60;45.45
55289;BME280;41154;45.394;5.734;2022-07-05T07:05:03;97427.72;;;30.67;49.99
55289;BME280;41154;45.394;5.734;2022-07-05T07:07:32;97429.03;;;31.30;47.80
55289;BME280;41154;45.394;5.734;2022-07-05T07:10:16;97432.06;;;31.21;47.41
55289;BME280;41154;45.394;5.734;2022-07-05T07:12:42;97429.53;;;30.32;49.17
55289;BME280;41154;45.394;5.734;2022-07-05T07:15:09;97436.66;;;30.53;48.77
55289;BME280;41154;45.394;5.734;2022-07-05T07:17:35;97432.88;;;30.41;49.23
55289;BME280;41154;45.394;5.734;2022-07-05T07:20:00;97431.38;;;29.58;49.96
55289;BME280;41154;45.394;5.734;2022-07-05T07:22:26;97427.44;;;30.72;48.93
55289;BME280;41154;45.394;5.734;2022-07-05T07:24:53;97434.00;;;31.47;48.92
55289;BME280;41154;45.394;5.734;2022-07-05T07:27:18;97430.78;;;30.85;53.79
55289;BME280;41154;45.394;5.734;2022-07-05T07:29:44;97427.81;;;31.27;47.73
55289;BME280;41154;45.394;5.734;2022-07-05T07:32:11;97438.91;;;31.58;47.17
55289;BME280;41154;45.394;5.734;2022-07-05T07:34:37;97434.47;;;31.23;46.34
55289;BME280;41154;45.394;5.734;2022-07-05T07:37:04;97424.06;;;29.89;51.07
55289;BME280;41154;45.394;5.734;2022-07-05T07:39:30;97425.59;;;30.83;49.29
55289;BME280;41154;45.394;5.734;2022-07-05T07:41:59;97420.59;;;31.87;47.63
55289;BME280;41154;45.394;5.734;2022-07-05T07:44:25;97425.78;;;31.54;47.63
55289;BME280;41154;45.394;5.734;2022-07-05T07:46:51;97431.19;;;30.87;47.32
55289;BME280;41154;45.394;5.734;2022-07-05T07:49:17;97430.19;;;31.29;46.48
55289;BME280;41154;45.394;5.734;2022-07-05T07:51:44;97433.97;;;32.64;43.75
55289;BME280;41154;45.394;5.734;2022-07-05T07:54:10;97426.41;;;33.27;42.53
55289;BME280;41154;45.394;5.734;2022-07-05T07:56:36;97427.53;;;34.32;39.93
55289;BME280;41154;45.394;5.734;2022-07-05T07:59:01;97432.00;;;31.78;44.41
55289;BME280;41154;45.394;5.734;2022-07-05T08:01:27;97419.47;;;33.73;41.51
55289;BME280;41154;45.394;5.734;2022-07-05T08:03:53;97428.31;;;34.76;38.54
55289;BME280;41154;45.394;5.734;2022-07-05T08:06:19;97426.16;;;32.32;46.54
55289;BME280;41154;45.394;5.734;2022-07-05T08:08:45;97428.59;;;31.96;46.41
55289;BME280;41154;45.394;5.734;2022-07-05T08:11:12;97427.47;;;32.41;45.19
55289;BME280;41154;45.394;5.734;2022-07-05T08:13:38;97418.34;;;34.13;40.28
55289;BME280;41154;45.394;5.734;2022-07-05T08:16:11;97424.81;;;32.11;43.57
55289;BME280;41154;45.394;5.734;2022-07-05T08:18:37;97414.78;;;34.70;38.74
55289;BME280;41154;45.394;5.734;2022-07-05T08:21:20;97420.31;;;34.09;39.43
55289;BME280;41154;45.394;5.734;2022-07-05T08:24:05;97414.69;;;33.73;38.95
55289;BME280;41154;45.394;5.734;2022-07-05T08:26:32;97415.97;;;34.41;38.33
55289;BME280;41154;45.394;5.734;2022-07-05T08:28:59;97416.25;;;33.63;39.83
55289;BME280;41154;45.394;5.734;2022-07-05T08:31:27;97409.97;;;34.02;39.91
55289;BME280;41154;45.394;5.734;2022-07-05T08:33:53;97411.53;;;35.01;38.77
55289;BME280;41154;45.394;5.734;2022-07-05T08:36:19;97413.16;;;34.84;37.89
55289;BME280;41154;45.394;5.734;2022-07-05T08:38:45;97413.97;;;34.23;38.74
55289;BME280;41154;45.394;5.734;2022-07-05T08:41:12;97416.38;;;31.63;43.86
55289;BME280;41154;45.394;5.734;2022-07-05T08:43:41;97414.38;;;32.97;40.22
55289;BME280;41154;45.394;5.734;2022-07-05T08:46:11;97411.41;;;33.42;40.55
55289;BME280;41154;45.394;5.734;2022-07-05T08:48:38;97412.03;;;35.80;36.71
55289;BME280;41154;45.394;5.734;2022-07-05T08:51:21;97409.41;;;32.69;42.40
55289;BME280;41154;45.394;5.734;2022-07-05T08:53:49;97410.69;;;35.25;37.60
55289;BME280;41154;45.394;5.734;2022-07-05T08:56:15;97412.34;;;34.94;38.22
55289;BME280;41154;45.394;5.734;2022-07-05T08:58:41;97408.03;;;30.98;45.08
55289;BME280;41154;45.394;5.734;2022-07-05T09:01:08;97413.75;;;31.43;46.50
55289;BME280;41154;45.394;5.734;2022-07-05T09:03:42;97417.16;;;30.99;46.39
55289;BME280;41154;45.394;5.734;2022-07-05T09:06:10;97415.88;;;31.53;45.55
55289;BME280;41154;45.394;5.734;2022-07-05T09:08:38;97413.84;;;32.81;44.73
55289;BME280;41154;45.394;5.734;2022-07-05T09:11:12;97415.41;;;31.17;47.60
55289;BME280;41154;45.394;5.734;2022-07-05T09:13:47;97410.88;;;31.36;46.99
55289;BME280;41154;45.394;5.734;2022-07-05T09:16:13;97411.78;;;29.67;50.26
55289;BME280;41154;45.394;5.734;2022-07-05T09:18:41;97412.88;;;32.07;46.17
55289;BME280;41154;45.394;5.734;2022-07-05T09:21:18;97414.44;;;29.80;50.66
55289;BME280;41154;45.394;5.734;2022-07-05T09:24:07;97418.53;;;31.12;48.52
55289;BME280;41154;45.394;5.734;2022-07-05T09:26:45;97411.28;;;33.17;43.85
55289;BME280;41154;45.394;5.734;2022-07-05T09:29:20;97409.28;;;33.14;43.83
55289;BME280;41154;45.394;5.734;2022-07-05T09:31:47;97411.81;;;32.22;44.76
55289;BME280;41154;45.394;5.734;2022-07-05T09:34:18;97420.06;;;32.64;45.05
55289;BME280;41154;45.394;5.734;2022-07-05T09:36:58;97415.72;;;32.14;47.81
55289;BME280;41154;45.394;5.734;2022-07-05T09:42:17;97412.09;;;28.20;54.69
55289;BME280;41154;45.394;5.734;2022-07-05T09:44:48;97420.97;;;28.29;57.42
55289;BME280;41154;45.394;5.734;2022-07-05T09:47:16;97413.25;;;28.19;56.48
55289;BME280;41154;45.394;5.734;2022-07-05T09:49:52;97411.94;;;27.69;57.76
55289;BME280;41154;45.394;5.734;2022-07-05T09:55:06;97410.75;;;28.46;57.95
55289;BME280;41154;45.394;5.734;2022-07-05T09:57:34;97408.72;;;27.67;58.96
55289;BME280;41154;45.394;5.734;2022-07-05T10:00:15;97410.81;;;28.81;56.75
55289;BME280;41154;45.394;5.734;2022-07-05T10:02:45;97413.50;;;28.97;56.28
55289;BME280;41154;45.394;5.734;2022-07-05T10:05:20;97416.03;;;29.42;55.68
55289;BME280;41154;45.394;5.734;2022-07-05T10:07:54;97411.72;;;28.54;56.32
55289;BME280;41154;45.394;5.734;2022-07-05T10:10:29;97414.38;;;29.01;56.19
55289;BME280;41154;45.394;5.734;2022-07-05T10:12:59;97413.69;;;28.05;58.79
55289;BME280;41154;45.394;5.734;2022-07-05T10:15:27;97417.63;;;27.60;60.36
55289;BME280;41154;45.394;5.734;2022-07-05T10:18:04;97419.81;;;28.78;57.78
55289;BME280;41154;45.394;5.734;2022-07-05T10:23:04;97413.56;;;26.88;62.42
55289;BME280;41154;45.394;5.734;2022-07-05T10:25:30;97416.09;;;26.81;64.32
55289;BME280;41154;45.394;5.734;2022-07-05T10:27:57;97417.19;;;27.74;61.48
55289;BME280;41154;45.394;5.734;2022-07-05T10:30:24;97414.22;;;27.95;57.78
55289;BME280;41154;45.394;5.734;2022-07-05T10:32:51;97406.84;;;28.15;58.61
55289;BME280;41154;45.394;5.734;2022-07-05T10:35:18;97410.59;;;28.07;57.96
55289;BME280;41154;45.394;5.734;2022-07-05T10:37:44;97416.97;;;27.95;59.96
55289;BME280;41154;45.394;5.734;2022-07-05T10:40:11;97412.28;;;27.39;61.26
55289;BME280;41154;45.394;5.734;2022-07-05T10:42:50;97419.78;;;26.61;65.56
55289;BME280;41154;45.394;5.734;2022-07-05T10:45:34;97423.66;;;26.10;65.95
55289;BME280;41154;45.394;5.734;2022-07-05T10:53:09;97426.78;;;26.21;65.95
55289;BME280;41154;45.394;5.734;2022-07-05T10:58:25;97418.19;;;26.23;64.80
55289;BME280;41154;45.394;5.734;2022-07-05T11:06:07;97425.41;;;27.17;61.73
55289;BME280;41154;45.394;5.734;2022-07-05T11:11:31;97421.38;;;26.12;66.56
55289;BME280;41154;45.394;5.734;2022-07-05T11:13:59;97423.81;;;25.47;68.01
55289;BME280;41154;45.394;5.734;2022-07-05T11:16:27;97409.03;;;25.73;67.11
55289;BME280;41154;45.394;5.734;2022-07-05T11:21:34;97422.28;;;26.90;64.57
55289;BME280;41154;45.394;5.734;2022-07-05T11:24:23;97418.72;;;27.43;61.19
55289;BME280;41154;45.394;5.734;2022-07-05T11:26:50;97420.69;;;27.87;60.37
55289;BME280;41154;45.394;5.734;2022-07-05T11:32:12;97407.66;;;27.55;61.03
55289;BME280;41154;45.394;5.734;2022-07-05T11:34:40;97413.63;;;27.73;60.83
55289;BME280;41154;45.394;5.734;2022-07-05T11:39:42;97402.59;;;28.85;58.40
55289;BME280;41154;45.394;5.734;2022-07-05T11:42:09;97391.09;;;29.38;57.51
55289;BME280;41154;45.394;5.734;2022-07-05T11:44:36;97404.50;;;28.49;59.52
55289;BME280;41154;45.394;5.734;2022-07-05T11:47:03;97403.81;;;28.20;59.51
55289;BME280;41154;45.394;5.734;2022-07-05T11:49:29;97397.13;;;28.37;58.38
55289;BME280;41154;45.394;5.734;2022-07-05T11:51:56;97403.97;;;28.43;57.16
55289;BME280;41154;45.394;5.734;2022-07-05T11:54:24;97400.03;;;27.80;60.31
55289;BME280;41154;45.394;5.734;2022-07-05T11:56:50;97394.19;;;27.38;60.23
55289;BME280;41154;45.394;5.734;2022-07-05T11:59:22;97402.56;;;27.57;59.44
55289;BME280;41154;45.394;5.734;2022-07-05T12:01:48;97399.31;;;26.99;62.76
55289;BME280;41154;45.394;5.734;2022-07-05T12:04:28;97402.34;;;26.81;61.86
55289;BME280;41154;45.394;5.734;2022-07-05T12:06:54;97395.94;;;26.52;61.35
55289;BME280;41154;45.394;5.734;2022-07-05T12:09:32;97393.88;;;26.62;59.90
55289;BME280;41154;45.394;5.734;2022-07-05T12:12:21;97387.25;;;26.26;59.42
55289;BME280;41154;45.394;5.734;2022-07-05T12:15:06;97382.50;;;27.73;55.78
55289;BME280;41154;45.394;5.734;2022-07-05T12:17:36;97385.13;;;28.29;54.54
55289;BME280;41154;45.394;5.734;2022-07-05T12:20:06;97375.66;;;29.56;52.17
55289;BME280;41154;45.394;5.734;2022-07-05T12:22:37;97372.81;;;28.94;53.28
55289;BME280;41154;45.394;5.734;2022-07-05T12:25:05;97381.06;;;29.72;49.55
55289;BME280;41154;45.394;5.734;2022-07-05T12:27:34;97377.97;;;28.96;52.26
55289;BME280;41154;45.394;5.734;2022-07-05T12:30:01;97373.09;;;28.54;52.22
55289;BME280;41154;45.394;5.734;2022-07-05T12:32:27;97370.94;;;27.11;57.43
55289;BME280;41154;45.394;5.734;2022-07-05T12:34:56;97382.09;;;27.42;58.37
55289;BME280;41154;45.394;5.734;2022-07-05T12:37:34;97370.06;;;26.29;59.48
55289;BME280;41154;45.394;5.734;2022-07-05T12:40:06;97376.91;;;25.98;61.85
55289;BME280;41154;45.394;5.734;2022-07-05T12:42:38;97377.22;;;25.96;61.44
55289;BME280;41154;45.394;5.734;2022-07-05T12:45:11;97363.75;;;26.28;57.46
55289;BME280;41154;45.394;5.734;2022-07-05T12:47:57;97367.28;;;26.66;57.15
55289;BME280;41154;45.394;5.734;2022-07-05T12:50:26;97364.59;;;27.22;55.36
55289;BME280;41154;45.394;5.734;2022-07-05T12:53:06;97365.50;;;27.26;53.95
55289;BME280;41154;45.394;5.734;2022-07-05T12:56:04;97365.53;;;26.73;54.67
55289;BME280;41154;45.394;5.734;2022-07-05T12:58:57;97365.31;;;26.79;56.55
55289;BME280;41154;45.394;5.734;2022-07-05T13:01:26;97363.84;;;26.69;54.86
55289;BME280;41154;45.394;5.734;2022-07-05T13:04:14;97366.75;;;27.57;57.27
55289;BME280;41154;45.394;5.734;2022-07-05T13:07:01;97358.41;;;27.70;55.08
55289;BME280;41154;45.394;5.734;2022-07-05T13:12:19;97351.63;;;27.23;54.62
55289;BME280;41154;45.394;5.734;2022-07-05T13:14:52;97363.03;;;26.56;56.24
55289;BME280;41154;45.394;5.734;2022-07-05T13:17:22;97345.03;;;26.71;56.80
55289;BME280;41154;45.394;5.734;2022-07-05T13:19:52;97357.44;;;26.40;57.11
55289;BME280;41154;45.394;5.734;2022-07-05T13:22:18;97349.28;;;26.44;56.24
55289;BME280;41154;45.394;5.734;2022-07-05T13:24:44;97351.50;;;26.01;57.69
55289;BME280;41154;45.394;5.734;2022-07-05T13:27:11;97347.38;;;26.32;54.96
55289;BME280;41154;45.394;5.734;2022-07-05T13:29:38;97349.16;;;26.65;57.77
55289;BME280;41154;45.394;5.734;2022-07-05T13:32:05;97341.94;;;27.13;54.67
55289;BME280;41154;45.394;5.734;2022-07-05T13:34:31;97348.09;;;27.67;54.08
55289;BME280;41154;45.394;5.734;2022-07-05T13:36:58;97345.81;;;27.12;56.64